Delabole, United Kingdom
Current Conditions -  °F | °C
As of 8:50 PM on Thursday 18 Dec 2014 (Local Time) from EGHQ Reporting Station
Light Rain Light Rain  
Wind Chill: 11°   Ceiling: 400
Heat Index: 11°   Visibility: 1.1mi
Dew Point: 10°   Wind: 30mph
Humidity: 94%   Direction: 230°SW
Pressure: 29.97"   Gusts: 41mph
Location:  50.62°N, 4.73°W
Report Text: EGHQ 182050Z 23026G36KT 1800 -RA BR BKN004 11/10 Q1015
Loading
Personal Weather Stations






























Interactive Weather Map New forecast layout! Learn more

10-Day Weather Forecast

Advertisements
Track Severe Weather on mobile